Port Saunders, Canada
Current Conditions -  °F | °C
As of 12:35 AM on Sunday 26 Oct 2014 (Local Time) from CWDH Reporting Station
Scattered Clouds Scattered Clouds  
Wind Chill:   Ceiling: Unl
Heat Index:   Visibility: 9mi
Dew Point: -1°   Wind: 15mph
Humidity: 71%   Direction: 60°ENE
Pressure: 29.62"   Gusts: NA
Location:  50.65°N, 57.27°W
Report Text: CWDH 260235Z AUTO 06013KT 9SM SCT023 04/M01 A2962 RMK PK WND 05020/// T00431006 WSI/SWOB
Loading
Personal Weather Stations






























Interactive Weather Map
Tropical Storm Tracking
New forecast layout! Learn more

10-Day Weather Forecast

Advertisements
Track Severe Weather on mobile